sensor_id;sensor_type;location;lat;lon;timestamp;temperature;humidity
31046;DHT22;17711;54.018;9.300;2023-05-18T00:00:51;8.50;99.90
31046;DHT22;17711;54.018;9.300;2023-05-18T00:03:25;8.40;99.90
31046;DHT22;17711;54.018;9.300;2023-05-18T00:05:58;8.40;99.90
31046;DHT22;17711;54.018;9.300;2023-05-18T00:08:43;8.30;99.90
31046;DHT22;17711;54.018;9.300;2023-05-18T00:11:14;8.30;99.90
31046;DHT22;17711;54.018;9.300;2023-05-18T00:13:47;8.30;99.90
31046;DHT22;17711;54.018;9.300;2023-05-18T00:16:32;8.20;99.90
31046;DHT22;17711;54.018;9.300;2023-05-18T00:19:23;8.20;99.90
31046;DHT22;17711;54.018;9.300;2023-05-18T00:21:54;8.10;99.90
31046;DHT22;17711;54.018;9.300;2023-05-18T00:24:40;8.00;99.90
31046;DHT22;17711;54.018;9.300;2023-05-18T00:27:11;8.10;99.90
31046;DHT22;17711;54.018;9.300;2023-05-18T00:29:54;8.10;99.90
31046;DHT22;17711;54.018;9.300;2023-05-18T00:32:25;8.00;99.90
31046;DHT22;17711;54.018;9.300;2023-05-18T00:35:03;8.00;99.90
31046;DHT22;17711;54.018;9.300;2023-05-18T00:37:39;8.10;99.90
31046;DHT22;17711;54.018;9.300;2023-05-18T00:40:14;8.30;99.90
31046;DHT22;17711;54.018;9.300;2023-05-18T00:42:48;8.40;99.90
31046;DHT22;17711;54.018;9.300;2023-05-18T00:45:25;8.40;99.90
31046;DHT22;17711;54.018;9.300;2023-05-18T00:48:10;8.40;99.90
31046;DHT22;17711;54.018;9.300;2023-05-18T00:50:43;8.40;99.90
31046;DHT22;17711;54.018;9.300;2023-05-18T00:53:17;8.40;99.90
31046;DHT22;17711;54.018;9.300;2023-05-18T00:55:57;8.50;99.90
31046;DHT22;17711;54.018;9.300;2023-05-18T00:58:44;8.60;99.90
31046;DHT22;17711;54.018;9.300;2023-05-18T01:01:26;8.60;99.90
31046;DHT22;17711;54.018;9.300;2023-05-18T01:03:59;8.60;99.90
31046;DHT22;17711;54.018;9.300;2023-05-18T01:06:57;8.50;99.90
31046;DHT22;17711;54.018;9.300;2023-05-18T01:09:36;8.40;99.90
31046;DHT22;17711;54.018;9.300;2023-05-18T01:12:23;8.30;99.90
31046;DHT22;17711;54.018;9.300;2023-05-18T01:15:06;8.30;99.90
31046;DHT22;17711;54.018;9.300;2023-05-18T01:18:00;8.30;99.90
31046;DHT22;17711;54.018;9.300;2023-05-18T01:20:46;8.30;99.90
31046;DHT22;17711;54.018;9.300;2023-05-18T01:23:51;8.20;99.90
31046;DHT22;17711;54.018;9.300;2023-05-18T01:26:33;8.30;99.90
31046;DHT22;17711;54.018;9.300;2023-05-18T01:29:12;8.40;99.90
31046;DHT22;17711;54.018;9.300;2023-05-18T01:31:44;8.30;99.90
31046;DHT22;17711;54.018;9.300;2023-05-18T01:34:20;8.30;99.90
31046;DHT22;17711;54.018;9.300;2023-05-18T01:37:06;8.40;99.90
31046;DHT22;17711;54.018;9.300;2023-05-18T01:39:45;8.30;99.90
31046;DHT22;17711;54.018;9.300;2023-05-18T01:42:27;8.30;99.90
31046;DHT22;17711;54.018;9.300;2023-05-18T01:45:14;8.40;99.90
31046;DHT22;17711;54.018;9.300;2023-05-18T01:48:07;8.40;99.90
31046;DHT22;17711;54.018;9.300;2023-05-18T01:50:52;8.40;99.90
31046;DHT22;17711;54.018;9.300;2023-05-18T01:53:35;8.50;99.90
31046;DHT22;17711;54.018;9.300;2023-05-18T01:56:09;8.60;99.90
31046;DHT22;17711;54.018;9.300;2023-05-18T01:58:58;8.70;99.90
31046;DHT22;17711;54.018;9.300;2023-05-18T02:01:31;8.80;99.90
31046;DHT22;17711;54.018;9.300;2023-05-18T02:04:10;8.80;99.90
31046;DHT22;17711;54.018;9.300;2023-05-18T02:06:45;8.80;99.90
31046;DHT22;17711;54.018;9.300;2023-05-18T02:09:24;8.80;99.90
31046;DHT22;17711;54.018;9.300;2023-05-18T02:11:54;8.80;99.90
31046;DHT22;17711;54.018;9.300;2023-05-18T02:14:30;8.80;99.90
31046;DHT22;17711;54.018;9.300;2023-05-18T02:17:14;8.70;99.90
31046;DHT22;17711;54.018;9.300;2023-05-18T02:19:58;8.50;99.90
31046;DHT22;17711;54.018;9.300;2023-05-18T02:22:30;8.60;99.90
31046;DHT22;17711;54.018;9.300;2023-05-18T02:25:01;8.60;99.90
31046;DHT22;17711;54.018;9.300;2023-05-18T02:27:33;8.50;99.90
31046;DHT22;17711;54.018;9.300;2023-05-18T02:30:06;8.50;99.90
31046;DHT22;17711;54.018;9.300;2023-05-18T02:32:46;8.40;99.90
31046;DHT22;17711;54.018;9.300;2023-05-18T02:35:25;8.40;99.90
31046;DHT22;17711;54.018;9.300;2023-05-18T02:37:58;8.30;99.90
31046;DHT22;17711;54.018;9.300;2023-05-18T02:40:33;8.30;99.90
31046;DHT22;17711;54.018;9.300;2023-05-18T02:43:09;8.20;99.90
31046;DHT22;17711;54.018;9.300;2023-05-18T02:46:01;8.20;99.90
31046;DHT22;17711;54.018;9.300;2023-05-18T02:48:39;8.20;99.90
31046;DHT22;17711;54.018;9.300;2023-05-18T02:51:26;8.20;99.90
31046;DHT22;17711;54.018;9.300;2023-05-18T02:54:03;8.20;99.90
31046;DHT22;17711;54.018;9.300;2023-05-18T02:56:33;8.20;99.90
31046;DHT22;17711;54.018;9.300;2023-05-18T02:59:06;8.30;99.90
31046;DHT22;17711;54.018;9.300;2023-05-18T03:01:47;8.20;99.90
31046;DHT22;17711;54.018;9.300;2023-05-18T03:04:20;8.30;99.90
31046;DHT22;17711;54.018;9.300;2023-05-18T03:06:58;8.30;99.90
31046;DHT22;17711;54.018;9.300;2023-05-18T03:09:31;8.30;99.90
31046;DHT22;17711;54.018;9.300;2023-05-18T03:12:01;8.30;99.90
31046;DHT22;17711;54.018;9.300;2023-05-18T03:14:39;8.30;99.90
31046;DHT22;17711;54.018;9.300;2023-05-18T03:17:12;8.30;99.90
31046;DHT22;17711;54.018;9.300;2023-05-18T03:19:45;8.30;99.90
31046;DHT22;17711;54.018;9.300;2023-05-18T03:22:22;8.30;99.90
31046;DHT22;17711;54.018;9.300;2023-05-18T03:25:07;8.20;99.90
31046;DHT22;17711;54.018;9.300;2023-05-18T03:27:38;8.20;99.90
31046;DHT22;17711;54.018;9.300;2023-05-18T03:30:10;8.20;99.90
31046;DHT22;17711;54.018;9.300;2023-05-18T03:33:02;8.20;99.90
31046;DHT22;17711;54.018;9.300;2023-05-18T03:35:34;8.20;99.90
31046;DHT22;17711;54.018;9.300;2023-05-18T03:38:19;8.20;99.90
31046;DHT22;17711;54.018;9.300;2023-05-18T03:40:51;8.20;99.90
31046;DHT22;17711;54.018;9.300;2023-05-18T03:43:28;8.10;99.90
31046;DHT22;17711;54.018;9.300;2023-05-18T03:46:04;8.00;99.90
31046;DHT22;17711;54.018;9.300;2023-05-18T03:48:40;8.10;99.90
31046;DHT22;17711;54.018;9.300;2023-05-18T03:51:12;8.10;99.90
31046;DHT22;17711;54.018;9.300;2023-05-18T03:53:58;8.20;99.90
31046;DHT22;17711;54.018;9.300;2023-05-18T03:56:37;8.30;99.90
31046;DHT22;17711;54.018;9.300;2023-05-18T03:59:10;8.50;99.90
31046;DHT22;17711;54.018;9.300;2023-05-18T04:01:47;8.60;99.90
31046;DHT22;17711;54.018;9.300;2023-05-18T04:04:40;8.60;99.90
31046;DHT22;17711;54.018;9.300;2023-05-18T04:07:18;8.60;99.90
31046;DHT22;17711;54.018;9.300;2023-05-18T04:10:01;8.60;99.90
31046;DHT22;17711;54.018;9.300;2023-05-18T04:12:32;8.60;99.90
31046;DHT22;17711;54.018;9.300;2023-05-18T04:15:15;8.60;99.90
31046;DHT22;17711;54.018;9.300;2023-05-18T04:17:52;8.60;99.90
31046;DHT22;17711;54.018;9.300;2023-05-18T04:20:39;8.70;99.90
31046;DHT22;17711;54.018;9.300;2023-05-18T04:23:17;8.70;99.90
31046;DHT22;17711;54.018;9.300;2023-05-18T04:25:53;8.80;99.90
31046;DHT22;17711;54.018;9.300;2023-05-18T04:28:25;8.80;99.90
31046;DHT22;17711;54.018;9.300;2023-05-18T04:31:15;8.80;99.90
31046;DHT22;17711;54.018;9.300;2023-05-18T04:33:49;8.90;99.90
31046;DHT22;17711;54.018;9.300;2023-05-18T04:36:25;8.90;99.90
31046;DHT22;17711;54.018;9.300;2023-05-18T04:39:09;8.90;99.90
31046;DHT22;17711;54.018;9.300;2023-05-18T04:41:40;9.10;99.90
31046;DHT22;17711;54.018;9.300;2023-05-18T04:44:11;9.10;99.90
31046;DHT22;17711;54.018;9.300;2023-05-18T04:46:41;9.10;99.90
31046;DHT22;17711;54.018;9.300;2023-05-18T04:49:13;9.30;99.90
31046;DHT22;17711;54.018;9.300;2023-05-18T04:51:46;9.30;99.90
31046;DHT22;17711;54.018;9.300;2023-05-18T04:54:20;9.30;99.90
31046;DHT22;17711;54.018;9.300;2023-05-18T04:56:53;9.30;99.90
31046;DHT22;17711;54.018;9.300;2023-05-18T04:59:38;9.40;99.90
31046;DHT22;17711;54.018;9.300;2023-05-18T05:02:20;9.50;99.90
31046;DHT22;17711;54.018;9.300;2023-05-18T05:04:59;9.60;99.90
31046;DHT22;17711;54.018;9.300;2023-05-18T05:07:35;9.70;99.90
31046;DHT22;17711;54.018;9.300;2023-05-18T05:10:10;9.80;99.90
31046;DHT22;17711;54.018;9.300;2023-05-18T05:12:46;9.80;99.90
31046;DHT22;17711;54.018;9.300;2023-05-18T05:15:32;9.90;99.90
31046;DHT22;17711;54.018;9.300;2023-05-18T05:18:06;10.00;99.90
31046;DHT22;17711;54.018;9.300;2023-05-18T05:20:38;10.10;99.90
31046;DHT22;17711;54.018;9.300;2023-05-18T05:23:11;10.30;99.90
31046;DHT22;17711;54.018;9.300;2023-05-18T05:25:43;10.40;99.90
31046;DHT22;17711;54.018;9.300;2023-05-18T05:28:16;10.50;99.90
31046;DHT22;17711;54.018;9.300;2023-05-18T05:30:57;10.50;99.90
31046;DHT22;17711;54.018;9.300;2023-05-18T05:33:35;10.60;99.90
31046;DHT22;17711;54.018;9.300;2023-05-18T05:36:18;10.70;99.90
31046;DHT22;17711;54.018;9.300;2023-05-18T05:39:06;10.80;99.90
31046;DHT22;17711;54.018;9.300;2023-05-18T05:41:38;10.80;99.90
31046;DHT22;17711;54.018;9.300;2023-05-18T05:44:09;10.90;99.90
31046;DHT22;17711;54.018;9.300;2023-05-18T05:46:53;10.90;99.90
31046;DHT22;17711;54.018;9.300;2023-05-18T05:49:28;11.00;99.90
31046;DHT22;17711;54.018;9.300;2023-05-18T05:52:14;11.10;99.90
31046;DHT22;17711;54.018;9.300;2023-05-18T05:55:01;11.20;99.90
31046;DHT22;17711;54.018;9.300;2023-05-18T05:57:34;11.40;99.90
31046;DHT22;17711;54.018;9.300;2023-05-18T06:00:09;11.50;99.90
31046;DHT22;17711;54.018;9.300;2023-05-18T06:02:54;11.60;99.90
31046;DHT22;17711;54.018;9.300;2023-05-18T06:05:37;11.60;99.90
31046;DHT22;17711;54.018;9.300;2023-05-18T06:08:09;11.70;99.90
31046;DHT22;17711;54.018;9.300;2023-05-18T06:10:45;11.70;99.90
31046;DHT22;17711;54.018;9.300;2023-05-18T06:13:23;11.70;99.90
31046;DHT22;17711;54.018;9.300;2023-05-18T06:16:10;11.90;99.90
31046;DHT22;17711;54.018;9.300;2023-05-18T06:18:42;12.00;99.90
31046;DHT22;17711;54.018;9.300;2023-05-18T06:21:17;12.00;99.90
31046;DHT22;17711;54.018;9.300;2023-05-18T06:23:47;12.20;99.90
31046;DHT22;17711;54.018;9.300;2023-05-18T06:26:32;12.40;99.90
31046;DHT22;17711;54.018;9.300;2023-05-18T06:29:05;12.50;99.90
31046;DHT22;17711;54.018;9.300;2023-05-18T06:31:38;12.40;99.90
31046;DHT22;17711;54.018;9.300;2023-05-18T06:34:14;12.50;99.90
31046;DHT22;17711;54.018;9.300;2023-05-18T06:36:44;12.60;99.90
31046;DHT22;17711;54.018;9.300;2023-05-18T06:39:26;12.60;99.90
31046;DHT22;17711;54.018;9.300;2023-05-18T06:42:10;12.60;99.90
31046;DHT22;17711;54.018;9.300;2023-05-18T06:44:42;12.70;99.90
31046;DHT22;17711;54.018;9.300;2023-05-18T06:47:16;12.80;99.90
31046;DHT22;17711;54.018;9.300;2023-05-18T06:49:57;12.80;99.90
31046;DHT22;17711;54.018;9.300;2023-05-18T06:52:43;13.10;99.90
31046;DHT22;17711;54.018;9.300;2023-05-18T06:55:16;13.10;99.90
31046;DHT22;17711;54.018;9.300;2023-05-18T06:58:10;12.80;99.90
31046;DHT22;17711;54.018;9.300;2023-05-18T07:00:45;12.80;99.90
31046;DHT22;17711;54.018;9.300;2023-05-18T07:03:20;12.90;99.90
31046;DHT22;17711;54.018;9.300;2023-05-18T07:05:52;13.10;99.90
31046;DHT22;17711;54.018;9.300;2023-05-18T07:08:35;13.30;99.90
31046;DHT22;17711;54.018;9.300;2023-05-18T07:11:17;13.50;99.90
31046;DHT22;17711;54.018;9.300;2023-05-18T07:14:03;13.50;99.90
31046;DHT22;17711;54.018;9.300;2023-05-18T07:16:36;13.40;99.90
31046;DHT22;17711;54.018;9.300;2023-05-18T07:19:07;13.60;99.90
31046;DHT22;17711;54.018;9.300;2023-05-18T07:21:46;13.80;99.90
31046;DHT22;17711;54.018;9.300;2023-05-18T07:24:18;13.80;99.90
31046;DHT22;17711;54.018;9.300;2023-05-18T07:26:51;13.80;99.90
31046;DHT22;17711;54.018;9.300;2023-05-18T07:29:27;13.90;99.90
31046;DHT22;17711;54.018;9.300;2023-05-18T07:32:00;13.90;99.90
31046;DHT22;17711;54.018;9.300;2023-05-18T07:34:32;14.00;99.90
31046;DHT22;17711;54.018;9.300;2023-05-18T07:37:16;13.90;99.90
31046;DHT22;17711;54.018;9.300;2023-05-18T07:39:48;14.30;99.90
31046;DHT22;17711;54.018;9.300;2023-05-18T07:42:19;14.90;99.90
31046;DHT22;17711;54.018;9.300;2023-05-18T07:45:03;15.10;99.90
31046;DHT22;17711;54.018;9.300;2023-05-18T07:47:39;15.50;99.90
31046;DHT22;17711;54.018;9.300;2023-05-18T07:50:09;16.00;99.90
31046;DHT22;17711;54.018;9.300;2023-05-18T07:52:46;16.20;99.90
31046;DHT22;17711;54.018;9.300;2023-05-18T07:55:18;16.20;99.90
31046;DHT22;17711;54.018;9.300;2023-05-18T07:57:50;16.20;99.90
31046;DHT22;17711;54.018;9.300;2023-05-18T08:00:24;16.40;73.60
31046;DHT22;17711;54.018;9.300;2023-05-18T08:03:01;16.10;73.80
31046;DHT22;17711;54.018;9.300;2023-05-18T08:05:34;15.90;69.70
31046;DHT22;17711;54.018;9.300;2023-05-18T08:08:14;16.30;99.90
31046;DHT22;17711;54.018;9.300;2023-05-18T08:10:47;16.70;91.90
31046;DHT22;17711;54.018;9.300;2023-05-18T08:13:20;17.20;72.20
31046;DHT22;17711;54.018;9.300;2023-05-18T08:16:04;18.00;95.10
31046;DHT22;17711;54.018;9.300;2023-05-18T08:18:40;18.90;62.70
31046;DHT22;17711;54.018;9.300;2023-05-18T08:21:17;19.90;54.80
31046;DHT22;17711;54.018;9.300;2023-05-18T08:23:52;21.10;70.50
31046;DHT22;17711;54.018;9.300;2023-05-18T08:26:26;22.80;56.70
31046;DHT22;17711;54.018;9.300;2023-05-18T08:29:13;23.60;48.60
31046;DHT22;17711;54.018;9.300;2023-05-18T08:31:50;24.30;46.30
31046;DHT22;17711;54.018;9.300;2023-05-18T08:34:24;23.90;41.10
31046;DHT22;17711;54.018;9.300;2023-05-18T08:36:59;24.30;39.00
31046;DHT22;17711;54.018;9.300;2023-05-18T08:39:47;25.30;41.60
31046;DHT22;17711;54.018;9.300;2023-05-18T08:42:22;25.70;36.10
31046;DHT22;17711;54.018;9.300;2023-05-18T08:45:34;25.50;35.70
31046;DHT22;17711;54.018;9.300;2023-05-18T08:48:23;26.20;36.90
31046;DHT22;17711;54.018;9.300;2023-05-18T08:50:57;26.60;33.30
31046;DHT22;17711;54.018;9.300;2023-05-18T08:53:30;27.40;32.60
31046;DHT22;17711;54.018;9.300;2023-05-18T08:56:12;28.10;29.60
31046;DHT22;17711;54.018;9.300;2023-05-18T08:58:56;28.20;28.70
31046;DHT22;17711;54.018;9.300;2023-05-18T09:01:28;27.00;29.00
31046;DHT22;17711;54.018;9.300;2023-05-18T09:04:10;27.40;37.20
31046;DHT22;17711;54.018;9.300;2023-05-18T09:06:40;29.40;36.30
31046;DHT22;17711;54.018;9.300;2023-05-18T09:09:21;30.40;27.80
31046;DHT22;17711;54.018;9.300;2023-05-18T09:11:56;30.80;31.70
31046;DHT22;17711;54.018;9.300;2023-05-18T09:14:31;31.50;29.00
31046;DHT22;17711;54.018;9.300;2023-05-18T09:17:01;31.40;28.80
31046;DHT22;17711;54.018;9.300;2023-05-18T09:19:36;31.20;28.50
31046;DHT22;17711;54.018;9.300;2023-05-18T09:22:14;31.50;26.80
31046;DHT22;17711;54.018;9.300;2023-05-18T09:24:45;31.10;28.00
31046;DHT22;17711;54.018;9.300;2023-05-18T09:27:33;31.60;29.00
31046;DHT22;17711;54.018;9.300;2023-05-18T09:30:08;32.40;27.50
31046;DHT22;17711;54.018;9.300;2023-05-18T09:32:52;33.10;25.50
31046;DHT22;17711;54.018;9.300;2023-05-18T09:35:36;32.50;25.10
31046;DHT22;17711;54.018;9.300;2023-05-18T09:38:11;31.40;24.90
31046;DHT22;17711;54.018;9.300;2023-05-18T09:40:52;31.00;26.00
31046;DHT22;17711;54.018;9.300;2023-05-18T09:43:25;31.60;30.20
31046;DHT22;17711;54.018;9.300;2023-05-18T09:45:56;32.70;26.00
31046;DHT22;17711;54.018;9.300;2023-05-18T09:48:28;32.30;24.30
31046;DHT22;17711;54.018;9.300;2023-05-18T09:51:12;31.70;24.60
31046;DHT22;17711;54.018;9.300;2023-05-18T09:53:52;32.00;27.80
31046;DHT22;17711;54.018;9.300;2023-05-18T09:56:28;32.30;23.80
31046;DHT22;17711;54.018;9.300;2023-05-18T09:59:09;31.50;27.60
31046;DHT22;17711;54.018;9.300;2023-05-18T10:01:55;31.80;24.50
31046;DHT22;17711;54.018;9.300;2023-05-18T10:04:39;30.90;24.40
31046;DHT22;17711;54.018;9.300;2023-05-18T10:07:27;30.60;25.30
31046;DHT22;17711;54.018;9.300;2023-05-18T10:10:14;31.10;27.00
31046;DHT22;17711;54.018;9.300;2023-05-18T10:12:47;32.60;25.50
31046;DHT22;17711;54.018;9.300;2023-05-18T10:15:22;33.60;25.60
31046;DHT22;17711;54.018;9.300;2023-05-18T10:17:57;33.30;22.60
31046;DHT22;17711;54.018;9.300;2023-05-18T10:20:33;32.20;27.50
31046;DHT22;17711;54.018;9.300;2023-05-18T10:23:19;31.50;24.10
31046;DHT22;17711;54.018;9.300;2023-05-18T10:25:57;31.50;29.60
31046;DHT22;17711;54.018;9.300;2023-05-18T10:28:49;32.90;26.40
31046;DHT22;17711;54.018;9.300;2023-05-18T10:31:22;33.20;24.70
31046;DHT22;17711;54.018;9.300;2023-05-18T10:33:56;33.60;23.70
31046;DHT22;17711;54.018;9.300;2023-05-18T10:36:29;33.00;26.00
31046;DHT22;17711;54.018;9.300;2023-05-18T10:39:18;33.10;26.40
31046;DHT22;17711;54.018;9.300;2023-05-18T10:41:54;34.00;24.90
31046;DHT22;17711;54.018;9.300;2023-05-18T10:44:26;34.30;22.30
31046;DHT22;17711;54.018;9.300;2023-05-18T10:47:00;32.80;21.90
31046;DHT22;17711;54.018;9.300;2023-05-18T10:49:32;31.90;22.00
31046;DHT22;17711;54.018;9.300;2023-05-18T10:52:16;31.90;23.50
31046;DHT22;17711;54.018;9.300;2023-05-18T10:54:51;31.80;24.60
31046;DHT22;17711;54.018;9.300;2023-05-18T10:57:31;32.00;24.40
31046;DHT22;17711;54.018;9.300;2023-05-18T11:00:10;32.60;26.40
31046;DHT22;17711;54.018;9.300;2023-05-18T11:03:04;33.00;24.80
31046;DHT22;17711;54.018;9.300;2023-05-18T11:06:02;32.60;22.50
31046;DHT22;17711;54.018;9.300;2023-05-18T11:08:46;32.60;25.40
31046;DHT22;17711;54.018;9.300;2023-05-18T11:11:22;33.30;24.60
31046;DHT22;17711;54.018;9.300;2023-05-18T11:13:54;34.30;23.30
31046;DHT22;17711;54.018;9.300;2023-05-18T11:16:41;34.70;25.00
31046;DHT22;17711;54.018;9.300;2023-05-18T11:19:14;35.60;22.30
31046;DHT22;17711;54.018;9.300;2023-05-18T11:22:10;35.70;23.50
31046;DHT22;17711;54.018;9.300;2023-05-18T11:24:45;35.50;22.30
31046;DHT22;17711;54.018;9.300;2023-05-18T11:27:22;34.20;22.30
31046;DHT22;17711;54.018;9.300;2023-05-18T11:29:53;33.10;22.60
31046;DHT22;17711;54.018;9.300;2023-05-18T11:32:49;33.00;22.80
31046;DHT22;17711;54.018;9.300;2023-05-18T11:35:24;32.80;26.70
31046;DHT22;17711;54.018;9.300;2023-05-18T11:38:09;33.80;24.80
31046;DHT22;17711;54.018;9.300;2023-05-18T11:40:46;34.60;25.60
31046;DHT22;17711;54.018;9.300;2023-05-18T11:43:30;35.10;24.00
31046;DHT22;17711;54.018;9.300;2023-05-18T11:46:03;35.20;23.60
31046;DHT22;17711;54.018;9.300;2023-05-18T11:48:54;35.10;24.00
31046;DHT22;17711;54.018;9.300;2023-05-18T11:51:55;34.70;19.40
31046;DHT22;17711;54.018;9.300;2023-05-18T11:54:27;34.20;22.60
31046;DHT22;17711;54.018;9.300;2023-05-18T11:57:00;34.30;23.20
31046;DHT22;17711;54.018;9.300;2023-05-18T11:59:40;33.30;24.20
31046;DHT22;17711;54.018;9.300;2023-05-18T12:02:18;32.50;22.60
31046;DHT22;17711;54.018;9.300;2023-05-18T12:04:53;31.90;25.20
31046;DHT22;17711;54.018;9.300;2023-05-18T12:07:29;30.50;25.70
31046;DHT22;17711;54.018;9.300;2023-05-18T12:10:12;30.80;28.80
31046;DHT22;17711;54.018;9.300;2023-05-18T12:12:49;31.10;23.90
31046;DHT22;17711;54.018;9.300;2023-05-18T12:15:31;31.80;23.50
31046;DHT22;17711;54.018;9.300;2023-05-18T12:18:02;31.70;24.90
31046;DHT22;17711;54.018;9.300;2023-05-18T12:20:33;31.90;27.30
31046;DHT22;17711;54.018;9.300;2023-05-18T12:23:12;32.10;27.20
31046;DHT22;17711;54.018;9.300;2023-05-18T12:25:43;32.60;26.70
31046;DHT22;17711;54.018;9.300;2023-05-18T12:28:19;32.20;24.40
31046;DHT22;17711;54.018;9.300;2023-05-18T12:30:58;32.40;26.80
31046;DHT22;17711;54.018;9.300;2023-05-18T12:33:37;32.50;24.60
31046;DHT22;17711;54.018;9.300;2023-05-18T12:36:11;32.40;27.60
31046;DHT22;17711;54.018;9.300;2023-05-18T12:38:47;32.50;24.80
31046;DHT22;17711;54.018;9.300;2023-05-18T12:41:33;31.80;22.90
31046;DHT22;17711;54.018;9.300;2023-05-18T12:44:05;31.10;26.60
31046;DHT22;17711;54.018;9.300;2023-05-18T12:46:51;31.20;26.00
31046;DHT22;17711;54.018;9.300;2023-05-18T12:49:23;31.50;28.70
31046;DHT22;17711;54.018;9.300;2023-05-18T12:52:11;30.90;27.10
31046;DHT22;17711;54.018;9.300;2023-05-18T12:54:54;29.30;28.30
31046;DHT22;17711;54.018;9.300;2023-05-18T12:57:26;29.20;30.20
31046;DHT22;17711;54.018;9.300;2023-05-18T12:59:59;29.20;29.60
31046;DHT22;17711;54.018;9.300;2023-05-18T13:02:41;29.00;30.40
31046;DHT22;17711;54.018;9.300;2023-05-18T13:05:23;29.00;28.80
31046;DHT22;17711;54.018;9.300;2023-05-18T13:07:58;28.80;29.10
31046;DHT22;17711;54.018;9.300;2023-05-18T13:10:31;27.80;31.00
31046;DHT22;17711;54.018;9.300;2023-05-18T13:13:03;27.60;34.00
31046;DHT22;17711;54.018;9.300;2023-05-18T13:15:34;26.70;28.90
31046;DHT22;17711;54.018;9.300;2023-05-18T13:18:11;26.40;35.80
31046;DHT22;17711;54.018;9.300;2023-05-18T13:20:48;26.70;33.40
31046;DHT22;17711;54.018;9.300;2023-05-18T13:23:27;27.10;31.90
31046;DHT22;17711;54.018;9.300;2023-05-18T13:25:58;27.20;33.80
31046;DHT22;17711;54.018;9.300;2023-05-18T13:28:34;27.90;35.70
31046;DHT22;17711;54.018;9.300;2023-05-18T13:31:15;27.90;29.50
31046;DHT22;17711;54.018;9.300;2023-05-18T13:33:55;27.80;35.80
31046;DHT22;17711;54.018;9.300;2023-05-18T13:36:35;28.10;32.90
31046;DHT22;17711;54.018;9.300;2023-05-18T13:39:13;28.40;33.30
31046;DHT22;17711;54.018;9.300;2023-05-18T13:41:46;28.40;33.20
31046;DHT22;17711;54.018;9.300;2023-05-18T13:44:15;28.70;32.40
31046;DHT22;17711;54.018;9.300;2023-05-18T13:46:47;28.90;32.60
31046;DHT22;17711;54.018;9.300;2023-05-18T13:49:21;28.70;32.30
31046;DHT22;17711;54.018;9.300;2023-05-18T13:51:52;28.40;32.40
31046;DHT22;17711;54.018;9.300;2023-05-18T13:54:36;27.50;31.20
31046;DHT22;17711;54.018;9.300;2023-05-18T13:57:06;26.70;29.90
31046;DHT22;17711;54.018;9.300;2023-05-18T13:59:38;26.60;29.60
31046;DHT22;17711;54.018;9.300;2023-05-18T14:02:09;26.70;34.30
31046;DHT22;17711;54.018;9.300;2023-05-18T14:04:40;26.40;31.70
31046;DHT22;17711;54.018;9.300;2023-05-18T14:07:12;26.00;37.10
31046;DHT22;17711;54.018;9.300;2023-05-18T14:10:08;26.30;37.60
31046;DHT22;17711;54.018;9.300;2023-05-18T14:12:51;26.30;38.90
31046;DHT22;17711;54.018;9.300;2023-05-18T14:15:34;26.10;39.70
31046;DHT22;17711;54.018;9.300;2023-05-18T14:18:15;26.00;37.20
31046;DHT22;17711;54.018;9.300;2023-05-18T14:20:54;25.80;37.10
31046;DHT22;17711;54.018;9.300;2023-05-18T14:23:28;25.90;39.80
31046;DHT22;17711;54.018;9.300;2023-05-18T14:26:07;26.20;35.40
31046;DHT22;17711;54.018;9.300;2023-05-18T14:28:42;26.10;37.10
31046;DHT22;17711;54.018;9.300;2023-05-18T14:31:20;26.00;42.60
31046;DHT22;17711;54.018;9.300;2023-05-18T14:34:05;26.00;38.40
31046;DHT22;17711;54.018;9.300;2023-05-18T14:36:49;25.80;34.30
31046;DHT22;17711;54.018;9.300;2023-05-18T14:39:28;25.30;34.70
31046;DHT22;17711;54.018;9.300;2023-05-18T14:42:07;25.10;34.40
31046;DHT22;17711;54.018;9.300;2023-05-18T14:44:39;24.80;35.50
31046;DHT22;17711;54.018;9.300;2023-05-18T14:47:08;24.80;36.80
31046;DHT22;17711;54.018;9.300;2023-05-18T14:49:43;24.70;36.40
31046;DHT22;17711;54.018;9.300;2023-05-18T14:52:16;24.40;34.70
31046;DHT22;17711;54.018;9.300;2023-05-18T14:54:50;24.10;36.10
31046;DHT22;17711;54.018;9.300;2023-05-18T14:57:25;24.10;36.10
31046;DHT22;17711;54.018;9.300;2023-05-18T14:59:57;23.80;40.40
31046;DHT22;17711;54.018;9.300;2023-05-18T15:02:28;23.80;40.70
31046;DHT22;17711;54.018;9.300;2023-05-18T15:05:00;24.00;40.20
31046;DHT22;17711;54.018;9.300;2023-05-18T15:07:35;24.10;39.90
31046;DHT22;17711;54.018;9.300;2023-05-18T15:10:07;24.10;41.40
31046;DHT22;17711;54.018;9.300;2023-05-18T15:12:41;23.80;37.10
31046;DHT22;17711;54.018;9.300;2023-05-18T15:15:15;23.30;38.90
31046;DHT22;17711;54.018;9.300;2023-05-18T15:17:47;23.20;40.50
31046;DHT22;17711;54.018;9.300;2023-05-18T15:20:30;22.80;41.40
31046;DHT22;17711;54.018;9.300;2023-05-18T15:23:18;22.80;40.20
31046;DHT22;17711;54.018;9.300;2023-05-18T15:25:52;22.90;42.80
31046;DHT22;17711;54.018;9.300;2023-05-18T15:28:33;23.20;43.40
31046;DHT22;17711;54.018;9.300;2023-05-18T15:31:13;23.00;41.60
31046;DHT22;17711;54.018;9.300;2023-05-18T15:33:52;22.90;42.40
31046;DHT22;17711;54.018;9.300;2023-05-18T15:36:25;22.70;41.50
31046;DHT22;17711;54.018;9.300;2023-05-18T15:39:13;22.70;45.80
31046;DHT22;17711;54.018;9.300;2023-05-18T15:41:43;22.70;45.00
31046;DHT22;17711;54.018;9.300;2023-05-18T15:44:18;22.50;41.00
31046;DHT22;17711;54.018;9.300;2023-05-18T15:46:52;22.40;42.00
31046;DHT22;17711;54.018;9.300;2023-05-18T15:49:26;22.30;45.00
31046;DHT22;17711;54.018;9.300;2023-05-18T15:52:01;22.10;45.00
31046;DHT22;17711;54.018;9.300;2023-05-18T15:54:34;22.20;45.10
31046;DHT22;17711;54.018;9.300;2023-05-18T15:57:03;22.10;42.90
31046;DHT22;17711;54.018;9.300;2023-05-18T15:59:41;21.90;50.40
31046;DHT22;17711;54.018;9.300;2023-05-18T16:02:17;22.10;49.90
31046;DHT22;17711;54.018;9.300;2023-05-18T16:04:53;22.10;47.20
31046;DHT22;17711;54.018;9.300;2023-05-18T16:07:31;22.10;46.60
31046;DHT22;17711;54.018;9.300;2023-05-18T16:10:18;22.00;48.60
31046;DHT22;17711;54.018;9.300;2023-05-18T16:12:51;21.90;44.40
31046;DHT22;17711;54.018;9.300;2023-05-18T16:15:23;21.60;44.40
31046;DHT22;17711;54.018;9.300;2023-05-18T16:17:54;21.30;44.50
31046;DHT22;17711;54.018;9.300;2023-05-18T16:20:25;21.20;45.80
31046;DHT22;17711;54.018;9.300;2023-05-18T16:23:06;21.00;50.10
31046;DHT22;17711;54.018;9.300;2023-05-18T16:25:39;20.80;47.60
31046;DHT22;17711;54.018;9.300;2023-05-18T16:28:11;20.90;71.90
31046;DHT22;17711;54.018;9.300;2023-05-18T16:30:41;20.90;60.40
31046;DHT22;17711;54.018;9.300;2023-05-18T16:33:18;20.70;68.20
31046;DHT22;17711;54.018;9.300;2023-05-18T16:35:54;20.70;77.50
31046;DHT22;17711;54.018;9.300;2023-05-18T16:38:29;20.60;72.10
31046;DHT22;17711;54.018;9.300;2023-05-18T16:41:07;20.60;72.70